KDCU

Details ICAO KDCU
Name PRYOR FLD RGNL
Region United States
Timezone America/Chicago (UTC-6.0)
Plans Departing 2
Arriving 2
Stats Elevation 592 ft / 180 m (AMSL)
Location 34.654052° -86.945164°
Runways 1
Magnetic Variation 3.467° W
Sunrise 2017-12-13 12:47:46 UTC / 2017-12-13 06:47:46 Local
Sunset 2017-12-13 22:39:16 UTC / 2017-12-13 16:39:16 Local
Advertisement - Login to hide

Runways

ID Width Length Bearing (true) Bearing (mag) Surface Threshold Offset Overrun Length
18 100 ft / 30 m 6,121 ft / 1,866 m 180.00° 183.47° Asphalt 0 ft / 0 m 0 ft / 0 m
36 100 ft / 30 m 6,121 ft / 1,866 m 0.00° 3.47° Asphalt 0 ft / 0 m 0 ft / 0 m

Map

Weather


0- 5 10 15 20 25 30 35+ Temperature / ° C

Clouds and Precipitation
Forecast for 2017-12-13 12:00 UTC. Updated 2 hours ago

Ground ~20,000 ft ~40,000 ft Winds

METAR

KDCU 130853Z AUTO 00000KT 10SM CLR M02/M09 A3011 RMK AO2 SLP200 T10221089 56004 $

TAF

Not found

Frequencies

Recorded 118.37 MHz ASOS
Approach 118.05 MHz HUNTSVILLE APP/DEP
Unicom 123.07 MHz CTAF/UNICOM
Warning: Do not use this data for real-world aviation or navigation. No guarantee of current accuracy is given.